KCYS/CYS METAR and TAF weather

Enter ICAO airport designator
Station Type Date Time Source
KCYS METAR 2021/09/28 02:53 UTC NOAA

KCYS 280253Z 00000KT 10SM CLR 20/M02 A3003 RMK AO2 SLP085 T02001022 53002


Station Type Date Time Source
KCYS Decoded METAR 2021/09/28 02:53 UTC NOAA

CHEYENNE AIRPORT, WY, United States (KCYS) 41-09N 104-48W 1865M
Sep 27, 2021 - 10:53 PM EDT / 2021.09.28 0253 UTC
Wind: Calm:0
Visibility: 10 mile(s):0
Sky conditions: clear
Temperature: 68.0 F (20.0 C)
Dew Point: 28.0 F (-2.2 C)
Relative Humidity: 22%
Pressure (altimeter): 30.03 in. Hg (1016 hPa)
Pressure tendency: 0.01 inches (0.2 hPa) higher than three hours ago
ob: KCYS 280253Z 00000KT 10SM CLR 20/M02 A3003 RMK AO2 SLP085 T02001022 53002
cycle: 3

Station Type Date Time Source
KCYS TAF 2021/09/27 18:22 UTC NOAA

TAF KCYS 271720Z 2718/2818 22005KT P6SM SKC
FM272100 17008KT P6SM SKC
FM280500 20006KT P6SM FEW250

Example: see airport list